MSC Nuria — 3ESE2 — position and weather

sailwx.info

Track history (hours):
 
Tides and Currents Weather Stations Pressure Air Temp Water Temp Dewpoint Dewpoint Depression Visibility Wind Speed Wind Dir Waves Ship Positions

MSC Nuria

Last reported at 2017-Mar-18 18:30 UTC. Time now 2017-Mar-24 06:15 UTC.
Position N 09°11' W 079°52'.

Length 275 m; draft 10 m.

Type: Ship (hazmat cat A). MMSI: 370272977.

Date/timePositionNaut miles runAvg speedWind from/ knotsBaromVisibWave heightAir tempDewpointWater temp
2017-Mar-18 18:30N 09°11' W 079°52'6 6.6
2017-Mar-18 17:33N 09°16' W 079°55'0 0.4
2017-Mar-18 16:33N 09°17' W 079°55'0 0.2
2017-Mar-18 15:33N 09°17' W 079°55'1 1.3
2017-Mar-18 14:33N 09°18' W 079°55'5 4.8
2017-Mar-18 13:33N 09°23' W 079°55'7 6.6
2017-Mar-18 12:33N 09°29' W 079°55'  
2017-Mar-13 08:28N 25°32' W 079°40'8 8.5
2017-Mar-13 07:33N 25°40' W 079°43'9 9.2
2017-Mar-13 06:33N 25°44' W 079°52'10 9.7
2017-Mar-13 05:33N 25°46' W 080°02'7 6.5
2017-Mar-13 04:33N 25°46' W 080°09'0 0.0
2017-Mar-13 03:29N 25°46' W 080°09'0 0.0
2017-Mar-13 02:32N 25°46' W 080°09'0 0.0
2017-Mar-13 01:31N 25°46' W 080°09'0 0.0
2017-Mar-13 00:31N 25°46' W 080°09'0 0.0
2017-Mar-12 23:33N 25°46' W 080°09'0 0.0
2017-Mar-12 22:30N 25°46' W 080°09'0 0.0
2017-Mar-12 21:33N 25°46' W 080°09'0 0.0
2017-Mar-12 20:32N 25°46' W 080°09'0 0.0
2017-Mar-12 19:19N 25°46' W 080°09'0 0.0
2017-Mar-12 18:31N 25°46' W 080°09'0 0.0
2017-Mar-12 17:33N 25°46' W 080°09'0 0.0
2017-Mar-12 16:33N 25°46' W 080°09'0 0.0
2017-Mar-12 15:32N 25°46' W 080°09'0 0.0
2017-Mar-12 14:31N 25°46' W 080°09'0 0.0
2017-Mar-12 13:31N 25°46' W 080°09'0 0.0
2017-Mar-12 12:30N 25°46' W 080°09'0 0.0
2017-Mar-12 11:33N 25°46' W 080°09'0 0.0
2017-Mar-12 10:32N 25°46' W 080°09'0 0.4
2017-Mar-12 09:34N 25°46' W 080°10'5 4.8
2017-Mar-12 08:34N 25°46' W 080°05'4 4.1
2017-Mar-12 07:33N 25°44' W 080°01'1313.4
2017-Mar-12 06:33N 25°30' W 080°00'  
Track history (hours):
 
Tides and Currents Weather Stations Pressure Air Temp Water Temp Dewpoint Dewpoint Depression Visibility Wind Speed Wind Dir Waves Ship Positions

MSC Nuria

Last reported at 2017-Mar-18 18:30 UTC. Time now 2017-Mar-24 06:15 UTC.
Position N 09°11' W 079°52'.

Length 275 m; draft 10 m.

Type: Ship (hazmat cat A). MMSI: 370272977.

Date/timePositionNaut miles runAvg speedWind from/ knotsBaromVisibWave heightAir tempDewpointWater temp
2017-Mar-18 18:30N 09°11' W 079°52'6 6.6
2017-Mar-18 17:33N 09°16' W 079°55'0 0.4
2017-Mar-18 16:33N 09°17' W 079°55'0 0.2
2017-Mar-18 15:33N 09°17' W 079°55'1 1.3
2017-Mar-18 14:33N 09°18' W 079°55'5 4.8
2017-Mar-18 13:33N 09°23' W 079°55'7 6.6
2017-Mar-18 12:33N 09°29' W 079°55'  
2017-Mar-13 08:28N 25°32' W 079°40'8 8.5
2017-Mar-13 07:33N 25°40' W 079°43'9 9.2
2017-Mar-13 06:33N 25°44' W 079°52'10 9.7
2017-Mar-13 05:33N 25°46' W 080°02'7 6.5
2017-Mar-13 04:33N 25°46' W 080°09'0 0.0
2017-Mar-13 03:29N 25°46' W 080°09'0 0.0
2017-Mar-13 02:32N 25°46' W 080°09'0 0.0
2017-Mar-13 01:31N 25°46' W 080°09'0 0.0
2017-Mar-13 00:31N 25°46' W 080°09'0 0.0
2017-Mar-12 23:33N 25°46' W 080°09'0 0.0
2017-Mar-12 22:30N 25°46' W 080°09'0 0.0
2017-Mar-12 21:33N 25°46' W 080°09'0 0.0
2017-Mar-12 20:32N 25°46' W 080°09'0 0.0
2017-Mar-12 19:19N 25°46' W 080°09'0 0.0
2017-Mar-12 18:31N 25°46' W 080°09'0 0.0
2017-Mar-12 17:33N 25°46' W 080°09'0 0.0
2017-Mar-12 16:33N 25°46' W 080°09'0 0.0
2017-Mar-12 15:32N 25°46' W 080°09'0 0.0
2017-Mar-12 14:31N 25°46' W 080°09'0 0.0
2017-Mar-12 13:31N 25°46' W 080°09'0 0.0
2017-Mar-12 12:30N 25°46' W 080°09'0 0.0
2017-Mar-12 11:33N 25°46' W 080°09'0 0.0
2017-Mar-12 10:32N 25°46' W 080°09'0 0.4
2017-Mar-12 09:34N 25°46' W 080°10'5 4.8
2017-Mar-12 08:34N 25°46' W 080°05'4 4.1
2017-Mar-12 07:33N 25°44' W 080°01'1313.4
2017-Mar-12 06:33N 25°30' W 080°00'  

Dump ship's entire track history